Time;durP1;ratioP1;P1;durP2;ratioP2;P2;SDS_P1;SDS_P2;PMS_P1;PMS_P2;Temp;Humidity;BMP_temperature;BMP_pressure;BME280_temperature;BME280_humidity;BME280_pressure;Samples;Min_cycle;Max_cycle;Signal;HPM_P1;HPM_P2
2021/12/24 00:00:10;;;;;;;0.10;0.10;;;4.60;99.90;;;;;;5093260;28;20044;-83
2021/12/24 00:02:38;;;;;;;0.10;0.10;;;4.60;99.90;;;;;;5094062;28;20036;-77
2021/12/24 00:05:06;;;;;;;0.10;0.10;;;4.90;99.90;;;;;;5109544;28;20041;-78
2021/12/24 00:07:34;;;;;;;0.10;0.10;;;4.60;99.90;;;;;;5093433;28;20047;-83
2021/12/24 00:10:01;;;;;;;0.10;0.10;;;4.70;99.90;;;;;;5092590;28;20131;-78
2021/12/24 00:12:32;;;;;;;0.10;0.10;;;4.60;99.90;;;;;;5092828;28;20051;-84
2021/12/24 00:15:03;;;;;;;0.10;0.10;;;4.60;99.90;;;;;;5076991;28;20037;-83
2021/12/24 00:17:34;;;;;;;0.10;0.10;;;5.50;99.90;;;;;;5093813;28;20119;-78
2021/12/24 00:35:57;;;;;;;0.10;0.10;;;4.80;99.90;;;;;;5095219;28;20468;-78
2021/12/24 00:38:24;;;;;;;0.10;0.10;;;4.80;99.90;;;;;;5092199;28;20037;-83
2021/12/24 00:40:51;;;;;;;0.10;0.10;;;4.90;99.90;;;;;;5076188;28;20051;-77
2021/12/24 00:43:17;;;;;;;0.08;0.08;;;4.90;99.90;;;;;;5092241;28;20040;-78
2021/12/24 00:45:46;;;;;;;0.10;0.10;;;4.90;99.90;;;;;;5075773;28;20105;-78
2021/12/24 00:48:15;;;;;;;0.10;0.10;;;4.90;99.90;;;;;;5109353;28;20100;-78
2021/12/24 00:56:04;;;;;;;;;;;4.90;99.90;;;;;;5109433;28;20041;-78
2021/12/24 00:58:32;;;;;;;0.10;0.10;;;4.90;99.90;;;;;;5092237;28;19916;-78
2021/12/24 01:00:58;;;;;;;0.10;0.10;;;4.90;99.90;;;;;;5075988;28;20032;-77
2021/12/24 01:03:25;;;;;;;0.10;0.10;;;4.90;99.90;;;;;;5075634;28;20048;-78
2021/12/24 01:05:52;;;;;;;0.10;0.10;;;5.00;99.90;;;;;;5092201;28;20051;-83
2021/12/24 01:08:19;;;;;;;0.10;0.10;;;5.00;99.90;;;;;;5075589;28;20043;-78
2021/12/24 01:10:56;;;;;;;0.10;0.10;;;5.00;99.90;;;;;;5092470;28;20113;-83
2021/12/24 01:13:24;;;;;;;0.10;0.10;;;5.00;99.90;;;;;;5092125;28;20040;-77
2021/12/24 01:16:02;;;;;;;0.13;0.13;;;5.10;99.90;;;;;;5075878;28;20032;-84
2021/12/24 01:18:51;;;;;;;0.10;0.10;;;5.20;99.90;;;;;;5077298;28;20094;-84
2021/12/24 01:21:43;;;;;;;0.10;0.10;;;5.10;99.90;;;;;;5108663;28;20432;-83
2021/12/24 01:24:15;;;;;;;0.10;0.10;;;5.10;99.90;;;;;;5092332;28;20037;-84
2021/12/24 01:26:56;;;;;;;0.10;0.10;;;5.10;99.90;;;;;;5091904;28;20040;-78
2021/12/24 01:29:45;;;;;;;0.10;0.10;;;5.20;99.90;;;;;;5093376;28;20390;-83
2021/12/24 01:38:09;;;;;;;0.10;0.10;;;5.20;99.90;;;;;;5108442;28;20541;-83
2021/12/24 01:41:03;;;;;;;0.10;0.10;;;5.20;99.90;;;;;;5079717;28;20052;-78
2021/12/24 01:43:28;;;;;;;0.10;0.10;;;5.40;99.90;;;;;;5095632;28;20448;-82
2021/12/24 01:45:57;;;;;;;0.10;0.10;;;5.20;99.90;;;;;;5074739;28;20083;-78
2021/12/24 01:48:24;;;;;;;0.10;0.10;;;5.20;99.90;;;;;;5091205;28;20045;-84
2021/12/24 01:50:53;;;;;;;0.10;0.10;;;5.40;99.90;;;;;;5074962;28;20040;-83
2021/12/24 01:53:22;;;;;;;0.10;0.10;;;5.20;99.90;;;;;;5091925;28;20043;-79
2021/12/24 01:55:51;;;;;;;0.10;0.10;;;5.30;99.90;;;;;;5091973;28;20033;-84
2021/12/24 01:58:25;;;;;;;0.10;0.10;;;5.20;99.90;;;;;;5092777;28;20123;-78
2021/12/24 02:00:55;;;;;;;0.10;0.10;;;5.30;99.90;;;;;;5092781;28;20041;-78
2021/12/24 02:03:22;;;;;;;0.03;0.03;;;5.50;99.90;;;;;;5091707;28;20044;-84
2021/12/24 02:05:49;;;;;;;0.10;0.10;;;5.30;99.90;;;;;;5091339;28;20131;-84
2021/12/24 02:08:17;;;;;;;0.10;0.10;;;5.40;99.90;;;;;;5074550;28;20044;-78
2021/12/24 02:10:43;;;;;;;0.10;0.10;;;5.40;99.90;;;;;;5091090;28;20052;-84
2021/12/24 02:13:13;;;;;;;0.10;0.10;;;5.40;99.90;;;;;;5091899;28;20047;-84
2021/12/24 02:16:04;;;;;;;0.10;0.10;;;5.50;99.90;;;;;;5075997;28;20082;-78
2021/12/24 02:29:38;;;;;;;0.10;0.10;;;5.50;99.90;;;;;;5092753;28;20049;-79
2021/12/24 02:32:05;;;;;;;0.10;0.10;;;5.60;99.90;;;;;;5074350;28;20033;-78
2021/12/24 02:34:32;;;;;;;0.10;0.10;;;5.60;99.90;;;;;;5059641;28;20041;-78
2021/12/24 02:36:59;;;;;;;0.10;0.10;;;5.60;99.90;;;;;;5089841;28;20025;-84
2021/12/24 02:39:25;;;;;;;0.10;0.10;;;5.60;99.90;;;;;;5074365;28;20040;-84
2021/12/24 02:41:52;;;;;;;0.10;0.10;;;5.60;99.90;;;;;;5071547;28;20036;-83
2021/12/24 02:44:19;;;;;;;0.10;0.10;;;5.60;99.90;;;;;;5076188;28;20032;-84
2021/12/24 02:54:55;;;;;;;0.10;0.10;;;5.60;99.90;;;;;;5072793;28;20044;-84
2021/12/24 02:57:26;;;;;;;0.10;0.10;;;5.70;99.90;;;;;;5070719;28;20077;-84
2021/12/24 03:00:28;;;;;;;0.10;0.10;;;6.00;99.90;;;;;;5087594;28;20497;-78
2021/12/24 03:02:48;;;;;;;0.10;0.10;;;5.70;99.90;;;;;;5072083;28;20046;-84
2021/12/24 03:05:17;;;;;;;0.10;0.10;;;5.70;99.90;;;;;;5053767;28;20047;-84
2021/12/24 03:07:44;;;;;;;0.10;0.10;;;5.70;99.90;;;;;;5070324;28;20049;-78
2021/12/24 03:10:14;;;;;;;0.08;0.08;;;5.80;99.90;;;;;;5086239;28;20110;-78
2021/12/24 03:12:44;;;;;;;0.10;0.10;;;5.80;99.90;;;;;;5086073;28;20052;-78
2021/12/24 03:15:13;;;;;;;0.10;0.10;;;5.80;99.90;;;;;;5070424;28;20409;-79
2021/12/24 03:17:46;;;;;;;0.10;0.10;;;6.30;99.90;;;;;;5085979;28;20405;-78
2021/12/24 03:20:13;;;;;;;0.10;0.10;;;5.90;99.90;;;;;;5054658;28;20037;-84
2021/12/24 03:22:50;;;;;;;0.10;0.10;;;5.90;99.90;;;;;;5069843;28;20041;-84
2021/12/24 03:25:17;;;;;;;0.10;0.10;;;5.90;99.90;;;;;;5054817;28;20907;-84
2021/12/24 03:27:44;;;;;;;0.10;0.10;;;6.00;99.90;;;;;;5069768;28;20080;-84
2021/12/24 03:30:12;;;;;;;0.10;0.10;;;6.40;99.90;;;;;;5069867;28;20043;-84
2021/12/24 03:32:39;;;;;;;0.03;0.03;;;6.10;99.90;;;;;;5052130;28;20558;-78
2021/12/24 03:35:06;;;;;;;0.00;0.00;;;6.00;99.90;;;;;;5086265;28;20080;-83
2021/12/24 03:37:33;;;;;;;0.13;0.13;;;6.00;99.90;;;;;;5052927;28;20486;-79
2021/12/24 03:40:00;;;;;;;0.10;0.10;;;6.10;99.90;;;;;;5053747;28;20098;-84
2021/12/24 03:42:26;;;;;;;0.10;0.10;;;6.10;99.90;;;;;;5069549;28;20811;-84
2021/12/24 03:45:04;;;;;;;0.10;0.10;;;6.10;99.90;;;;;;5069703;28;20049;-78
2021/12/24 03:47:36;;;;;;;0.10;0.10;;;6.20;99.90;;;;;;5085907;28;20047;-84
2021/12/24 03:50:09;;;;;;;0.10;0.10;;;6.20;99.90;;;;;;5070208;28;20045;-78
2021/12/24 03:53:02;;;;;;;0.08;0.08;;;6.20;99.90;;;;;;5086482;28;20457;-79
2021/12/24 03:55:26;;;;;;;0.10;0.10;;;6.20;99.90;;;;;;5086794;28;20049;-84
2021/12/24 03:57:52;;;;;;;0.10;0.10;;;6.40;99.90;;;;;;5053825;28;20044;-84
2021/12/24 04:00:23;;;;;;;0.10;0.10;;;6.20;99.90;;;;;;5054433;28;20097;-84
2021/12/24 04:02:50;;;;;;;0.10;0.10;;;6.50;99.90;;;;;;5085830;28;20037;-78
2021/12/24 04:05:17;;;;;;;0.10;0.10;;;6.20;99.90;;;;;;5053324;28;20044;-83
2021/12/24 04:07:44;;;;;;;0.08;0.08;;;6.30;99.90;;;;;;5053663;28;20047;-79
2021/12/24 04:10:30;;;;;;;0.10;0.10;;;6.30;99.90;;;;;;5068895;28;20049;-84
2021/12/24 04:12:56;;;;;;;0.10;0.10;;;6.50;99.90;;;;;;5071767;28;20517;-84
2021/12/24 04:15:23;;;;;;;0.10;0.10;;;6.30;99.90;;;;;;5086977;28;20178;-79
2021/12/24 04:17:50;;;;;;;0.10;0.10;;;6.50;99.90;;;;;;5069210;28;20033;-84
2021/12/24 04:25:48;;;;;;;0.30;0.30;;;6.40;99.90;;;;;;5071686;28;20155;-84
2021/12/24 04:28:15;;;;;;;0.00;0.00;;;6.40;99.90;;;;;;5069397;28;20049;-84
2021/12/24 04:30:47;;;;;;;0.10;0.10;;;6.50;99.90;;;;;;5069395;28;20041;-79
2021/12/24 04:33:27;;;;;;;0.10;0.10;;;6.50;99.90;;;;;;5086405;28;20060;-79
2021/12/24 04:36:15;;;;;;;0.10;0.10;;;7.10;99.90;;;;;;5085176;28;20661;-79
2021/12/24 04:52:56;;;;;;;0.10;0.10;;;6.80;99.90;;;;;;5075455;28;20037;-83
2021/12/24 05:03:42;;;;;;;0.10;0.10;;;6.80;99.90;;;;;;5074892;28;20467;-83
2021/12/24 05:08:53;;;;;;;0.73;0.73;;;7.40;99.90;;;;;;5073203;28;20475;-84
2021/12/24 05:11:21;;;;;;;0.10;0.10;;;6.90;99.90;;;;;;5073546;28;20053;-78
2021/12/24 05:13:50;;;;;;;0.00;0.00;;;7.00;99.90;;;;;;5088449;28;20084;-79
2021/12/24 05:16:25;;;;;;;0.10;0.10;;;7.10;99.90;;;;;;5089452;28;20047;-78
2021/12/24 05:21:33;;;;;;;0.10;0.10;;;7.10;99.90;;;;;;5089645;28;20041;-83
2021/12/24 05:24:09;;;;;;;0.10;0.10;;;7.10;99.90;;;;;;5088071;28;20041;-84
2021/12/24 05:26:36;;;;;;;0.03;0.03;;;7.10;99.90;;;;;;5089283;28;20047;-84
2021/12/24 05:29:04;;;;;;;0.05;0.05;;;7.10;99.90;;;;;;5055083;28;20131;-83
2021/12/24 05:31:31;;;;;;;0.00;0.00;;;7.20;99.90;;;;;;5056066;28;20124;-79
2021/12/24 05:33:59;;;;;;;0.00;0.00;;;7.20;99.90;;;;;;5072420;28;20386;-84
2021/12/24 05:36:26;;;;;;;0.00;0.00;;;7.20;99.90;;;;;;5072016;28;20552;-84
2021/12/24 05:38:53;;;;;;;0.10;0.10;;;7.20;99.90;;;;;;5087537;28;20079;-84
2021/12/24 05:41:21;;;;;;;0.00;0.00;;;7.30;99.90;;;;;;5072379;28;20073;-86
2021/12/24 05:43:50;;;;;;;0.13;0.13;;;7.20;99.90;;;;;;5054953;28;20463;-78
2021/12/24 05:46:16;;;;;;;0.00;0.00;;;7.20;99.90;;;;;;5054861;28;20032;-84
2021/12/24 05:48:43;;;;;;;0.10;0.10;;;7.20;99.90;;;;;;5088084;28;20037;-79
2021/12/24 05:51:10;;;;;;;0.00;0.00;;;7.20;99.90;;;;;;5072156;28;20033;-78
2021/12/24 05:53:37;;;;;;;0.00;0.00;;;7.30;99.90;;;;;;5072189;28;20076;-84
2021/12/24 05:56:05;;;;;;;0.00;0.00;;;7.30;99.90;;;;;;5070571;28;20044;-79
2021/12/24 05:58:31;;;;;;;0.00;0.00;;;7.30;99.90;;;;;;5071008;28;20033;-84
2021/12/24 06:00:58;;;;;;;0.10;0.10;;;7.30;99.90;;;;;;5088018;28;20053;-84
2021/12/24 06:03:25;;;;;;;0.00;0.00;;;7.30;99.90;;;;;;5071744;28;20041;-83
2021/12/24 06:05:52;;;;;;;0.10;0.10;;;7.30;99.90;;;;;;5087944;28;20108;-79
2021/12/24 06:08:18;;;;;;;0.10;0.10;;;7.30;99.90;;;;;;5054606;28;20037;-83
2021/12/24 06:10:45;;;;;;;0.08;0.08;;;7.30;99.90;;;;;;5070341;28;20068;-79
2021/12/24 06:13:12;;;;;;;0.05;0.05;;;7.30;99.90;;;;;;5054002;28;20048;-79
2021/12/24 06:15:44;;;;;;;0.28;0.20;;;7.30;99.90;;;;;;5070721;28;20124;-78
2021/12/24 06:18:20;;;;;;;0.00;0.00;;;7.30;99.90;;;;;;5071234;28;20032;-84
2021/12/24 06:20:48;;;;;;;0.10;0.10;;;7.50;99.90;;;;;;5088092;28;20044;-79
2021/12/24 06:23:15;;;;;;;0.10;0.10;;;7.40;99.90;;;;;;5086920;28;20051;-79
2021/12/24 06:25:41;;;;;;;0.10;0.10;;;7.30;99.90;;;;;;5070890;28;20046;-84
2021/12/24 06:28:08;;;;;;;0.00;0.00;;;7.30;99.90;;;;;;5071078;28;20099;-84
2021/12/24 06:30:37;;;;;;;0.10;0.10;;;7.30;99.90;;;;;;5054767;28;20140;-78
2021/12/24 06:33:04;;;;;;;0.08;0.08;;;7.50;99.90;;;;;;5070721;28;20044;-80
2021/12/24 06:35:31;;;;;;;0.10;0.10;;;7.30;99.90;;;;;;5054588;28;20033;-84
2021/12/24 06:37:57;;;;;;;0.55;0.45;;;7.30;99.90;;;;;;5087494;28;20127;-84
2021/12/24 06:40:25;;;;;;;0.03;0.03;;;7.40;99.90;;;;;;5070717;28;20045;-84
2021/12/24 06:42:52;;;;;;;0.00;0.00;;;7.30;99.90;;;;;;5087603;28;20406;-83
2021/12/24 06:45:23;;;;;;;0.10;0.10;;;7.30;99.90;;;;;;5086237;28;20045;-79
2021/12/24 06:47:51;;;;;;;0.10;0.10;;;7.30;99.90;;;;;;5071164;28;20409;-84
2021/12/24 06:50:18;;;;;;;0.10;0.10;;;7.30;99.90;;;;;;5054378;28;20073;-84
2021/12/24 06:52:45;;;;;;;0.00;0.00;;;7.30;99.90;;;;;;5070500;28;20076;-78
2021/12/24 06:55:13;;;;;;;0.00;0.00;;;7.30;99.90;;;;;;5085956;28;20425;-84
2021/12/24 06:57:41;;;;;;;0.10;0.10;;;7.40;99.90;;;;;;5087014;28;20040;-84
2021/12/24 07:00:11;;;;;;;0.10;0.10;;;7.30;99.90;;;;;;5086215;28;20043;-79
2021/12/24 07:02:37;;;;;;;0.00;0.00;;;7.30;99.90;;;;;;5053907;28;20044;-79
2021/12/24 07:05:05;;;;;;;0.00;0.00;;;7.30;99.90;;;;;;5086799;28;20048;-84
2021/12/24 07:07:31;;;;;;;0.10;0.10;;;7.30;99.90;;;;;;5073584;28;20041;-79
2021/12/24 07:09:58;;;;;;;0.08;0.08;;;7.30;99.90;;;;;;5053313;28;20406;-79
2021/12/24 07:12:25;;;;;;;0.00;0.00;;;7.30;99.90;;;;;;5069824;28;20530;-79
2021/12/24 07:14:52;;;;;;;0.00;0.00;;;7.30;99.90;;;;;;5070751;28;20037;-79
2021/12/24 07:17:18;;;;;;;0.00;0.00;;;7.40;99.90;;;;;;5055466;28;20036;-83
2021/12/24 07:19:45;;;;;;;0.17;0.17;;;7.40;99.90;;;;;;5070932;28;20626;-84
2021/12/24 07:22:13;;;;;;;0.05;0.05;;;7.30;99.90;;;;;;5098699;28;20052;-78
2021/12/24 07:24:40;;;;;;;0.10;0.10;;;7.30;99.90;;;;;;5073238;28;20143;-84
2021/12/24 07:27:07;;;;;;;0.00;0.00;;;7.30;99.90;;;;;;5070806;28;20462;-83
2021/12/24 07:29:33;;;;;;;0.08;0.08;;;7.30;99.90;;;;;;5072759;28;20052;-83
2021/12/24 07:32:00;;;;;;;0.00;0.00;;;7.40;99.90;;;;;;5074034;28;20401;-83
2021/12/24 07:34:27;;;;;;;0.05;0.05;;;7.30;99.90;;;;;;5086010;28;20037;-77
2021/12/24 07:36:53;;;;;;;0.00;0.00;;;7.30;99.90;;;;;;5085159;28;20041;-77
2021/12/24 07:39:20;;;;;;;0.00;0.00;;;7.40;99.90;;;;;;5064194;28;20041;-78
2021/12/24 07:41:48;;;;;;;0.05;0.05;;;7.80;99.90;;;;;;5071295;28;20064;-78
2021/12/24 07:44:17;;;;;;;0.00;0.00;;;7.40;99.90;;;;;;5089426;28;20036;-78
2021/12/24 07:46:54;;;;;;;0.00;0.00;;;7.40;99.90;;;;;;5089929;28;20044;-83
2021/12/24 07:52:13;;;;;;;0.10;0.10;;;7.40;99.90;;;;;;5072455;28;20559;-78
2021/12/24 07:54:45;;;;;;;0.03;0.03;;;7.40;99.90;;;;;;5073457;28;20737;-84
2021/12/24 07:57:13;;;;;;;0.10;0.10;;;7.40;99.90;;;;;;5069065;28;20079;-79
2021/12/24 07:59:42;;;;;;;0.10;0.10;;;7.40;99.90;;;;;;5069680;28;20041;-84
2021/12/24 08:02:11;;;;;;;0.00;0.00;;;7.30;99.90;;;;;;5085797;28;20045;-79
2021/12/24 08:04:39;;;;;;;0.03;0.03;;;7.20;99.90;;;;;;5072003;28;20041;-79
2021/12/24 08:07:08;;;;;;;0.00;0.00;;;7.20;99.90;;;;;;5088331;28;20044;-79
2021/12/24 08:09:37;;;;;;;0.10;0.10;;;7.10;99.90;;;;;;5096179;28;20653;-79
2021/12/24 08:12:09;;;;;;;0.00;0.00;;;7.10;99.90;;;;;;5072113;28;20044;-79
2021/12/24 08:14:36;;;;;;;0.15;0.15;;;7.00;99.90;;;;;;5105692;28;20478;-84
2021/12/24 08:17:04;;;;;;;0.00;0.00;;;7.40;99.90;;;;;;5105170;28;20044;-78
2021/12/24 08:19:30;;;;;;;0.10;0.10;;;7.00;99.90;;;;;;5091097;28;20049;-78
2021/12/24 08:21:58;;;;;;;0.13;0.13;;;6.90;99.90;;;;;;5075641;28;20048;-77
2021/12/24 08:24:25;;;;;;;0.00;0.00;;;6.90;99.90;;;;;;5078641;28;20377;-77
2021/12/24 08:26:52;;;;;;;0.03;0.03;;;7.00;99.90;;;;;;5064591;28;20044;-80
2021/12/24 08:29:21;;;;;;;0.00;0.00;;;6.90;99.90;;;;;;5086226;28;20041;-77
2021/12/24 08:31:50;;;;;;;0.00;0.00;;;6.90;99.90;;;;;;5078332;28;20488;-84
2021/12/24 08:34:18;;;;;;;0.10;0.10;;;6.80;99.90;;;;;;5074783;28;20036;-78
2021/12/24 08:36:46;;;;;;;0.10;0.10;;;6.70;99.90;;;;;;5086288;28;20071;-83
2021/12/24 08:39:13;;;;;;;0.10;0.10;;;6.60;99.90;;;;;;5059053;28;20041;-77
2021/12/24 08:41:40;;;;;;;0.00;0.00;;;6.40;99.90;;;;;;5081734;28;20045;-77
2021/12/24 08:44:06;;;;;;;0.00;0.00;;;6.40;99.90;;;;;;5074219;28;20465;-84
2021/12/24 08:46:33;;;;;;;0.00;0.00;;;6.30;99.90;;;;;;5073547;28;20047;-82
2021/12/24 08:49:00;;;;;;;0.00;0.00;;;6.20;99.90;;;;;;5071723;28;20047;-78
2021/12/24 08:51:26;;;;;;;0.10;0.10;;;6.10;99.90;;;;;;5076492;28;20036;-82
2021/12/24 08:53:53;;;;;;;0.00;0.00;;;6.10;99.90;;;;;;5089510;28;20036;-78
2021/12/24 08:56:22;;;;;;;0.10;0.10;;;6.00;99.90;;;;;;5078652;28;20099;-78
2021/12/24 08:58:49;;;;;;;0.10;0.10;;;6.10;99.90;;;;;;5087683;28;20390;-83
2021/12/24 09:01:17;;;;;;;0.10;0.10;;;5.90;99.90;;;;;;5088585;28;20132;-83
2021/12/24 09:03:43;;;;;;;0.05;0.05;;;5.80;99.90;;;;;;5103305;28;20041;-78
2021/12/24 09:06:10;;;;;;;0.10;0.10;;;5.80;99.90;;;;;;5071199;28;20037;-78
2021/12/24 09:08:42;;;;;;;0.10;0.10;;;5.80;99.90;;;;;;5065672;28;20047;-78
2021/12/24 09:11:08;;;;;;;0.10;0.10;;;5.70;99.90;;;;;;5091863;28;20061;-83
2021/12/24 09:13:35;;;;;;;0.10;0.10;;;5.70;99.90;;;;;;5090452;28;20106;-77
2021/12/24 09:16:02;;;;;;;0.10;0.10;;;5.70;99.90;;;;;;5107932;28;20044;-83
2021/12/24 09:18:29;;;;;;;0.10;0.10;;;5.60;99.90;;;;;;5074466;28;20047;-78
2021/12/24 09:21:00;;;;;;;0.10;0.10;;;5.60;99.90;;;;;;5065817;28;20049;-78
2021/12/24 09:23:27;;;;;;;0.10;0.10;;;5.60;99.90;;;;;;5066550;28;20165;-79
2021/12/24 09:25:54;;;;;;;0.03;0.03;;;5.60;99.90;;;;;;5075256;28;20045;-78
2021/12/24 09:28:20;;;;;;;0.00;0.00;;;5.70;99.90;;;;;;5090267;28;20041;-79
2021/12/24 09:30:47;;;;;;;0.15;0.15;;;5.60;99.90;;;;;;5053552;28;20519;-78
2021/12/24 09:33:14;;;;;;;0.10;0.10;;;5.50;99.90;;;;;;5095961;28;20082;-84
2021/12/24 09:35:41;;;;;;;0.10;0.10;;;5.50;99.90;;;;;;5074308;28;20040;-83
2021/12/24 09:38:09;;;;;;;0.10;0.10;;;5.50;99.90;;;;;;5090898;28;20028;-78
2021/12/24 09:40:36;;;;;;;0.10;0.10;;;6.10;99.90;;;;;;5074044;28;20117;-82
2021/12/24 09:43:03;;;;;;;0.00;0.00;;;5.60;99.90;;;;;;5085020;28;20033;-78
2021/12/24 09:45:29;;;;;;;0.00;0.00;;;5.50;99.90;;;;;;5054270;28;20041;-83
2021/12/24 09:47:56;;;;;;;0.10;0.10;;;5.50;99.90;;;;;;5071203;28;20052;-83
2021/12/24 09:50:26;;;;;;;0.10;0.10;;;5.50;99.90;;;;;;5084660;28;20128;-79
2021/12/24 09:52:53;;;;;;;0.10;0.10;;;5.50;99.90;;;;;;5090357;28;20059;-78
2021/12/24 09:55:24;;;;;;;0.10;0.10;;;5.40;99.90;;;;;;5070741;28;20037;-83
2021/12/24 09:57:52;;;;;;;0.20;0.20;;;5.30;99.90;;;;;;5081220;28;20044;-84
2021/12/24 10:00:21;;;;;;;0.10;0.10;;;5.30;99.90;;;;;;5090824;28;20087;-84
2021/12/24 10:02:52;;;;;;;0.10;0.10;;;5.20;99.90;;;;;;5089782;28;20087;-83
2021/12/24 10:05:32;;;;;;;0.10;0.10;;;5.20;99.90;;;;;;5087676;28;20045;-77
2021/12/24 10:08:19;;;;;;;0.10;0.10;;;5.10;99.90;;;;;;5087306;28;20041;-78
2021/12/24 10:10:50;;;;;;;0.10;0.10;;;5.10;99.90;;;;;;5069893;28;20570;-82
2021/12/24 10:13:43;;;;;;;0.10;0.10;;;5.00;99.90;;;;;;5073379;28;20516;-82
2021/12/24 10:16:22;;;;;;;0.10;0.10;;;5.00;99.90;;;;;;5107105;28;20117;-83
2021/12/24 10:18:51;;;;;;;0.10;0.10;;;5.00;99.90;;;;;;5082956;28;20037;-83
2021/12/24 10:21:27;;;;;;;0.10;0.10;;;5.00;99.90;;;;;;5070993;28;20045;-78
2021/12/24 10:24:00;;;;;;;;;;;5.00;99.90;;;;;;5077515;28;20049;-78
2021/12/24 10:26:32;;;;;;;0.10;0.10;;;5.00;99.90;;;;;;5086618;28;19925;-78
2021/12/24 10:29:33;;;;;;;0.10;0.10;;;5.00;99.90;;;;;;5092987;28;20492;-78
2021/12/24 10:32:12;;;;;;;0.10;0.10;;;4.90;99.90;;;;;;5069758;28;20590;-78
2021/12/24 10:34:40;;;;;;;0.00;0.00;;;4.80;99.90;;;;;;5078642;28;20048;-78
2021/12/24 10:37:24;;;;;;;0.10;0.10;;;4.80;99.90;;;;;;5070153;28;20060;-82
2021/12/24 10:39:54;;;;;;;0.15;0.15;;;4.80;99.90;;;;;;5086484;28;20138;-78
2021/12/24 10:42:37;;;;;;;0.10;0.10;;;4.70;99.90;;;;;;5069719;28;20048;-83
2021/12/24 10:45:17;;;;;;;0.05;0.05;;;4.70;99.90;;;;;;5069947;28;20045;-83
2021/12/24 10:47:44;;;;;;;0.10;0.10;;;4.60;99.90;;;;;;5069753;28;20076;-82
2021/12/24 10:55:51;;;;;;;0.10;0.10;;;4.70;99.90;;;;;;5089458;28;20094;-83
2021/12/24 10:58:18;;;;;;;;;;;4.70;99.90;;;;;;5070785;28;20037;-84
2021/12/24 11:00:52;;;;;;;0.10;0.10;;;4.80;99.90;;;;;;5086198;28;19916;-79
2021/12/24 11:03:23;;;;;;;0.10;0.10;;;4.70;99.90;;;;;;5086215;28;20040;-84
2021/12/24 11:05:52;;;;;;;0.10;0.10;;;4.80;99.90;;;;;;5062121;28;20128;-79
2021/12/24 11:08:27;;;;;;;0.10;0.10;;;4.70;99.90;;;;;;5086333;28;20049;-84
2021/12/24 11:10:56;;;;;;;0.17;0.17;;;4.70;99.90;;;;;;5101856;28;20417;-84
2021/12/24 11:13:32;;;;;;;0.10;0.10;;;4.60;99.90;;;;;;5106233;28;20041;-78
2021/12/24 11:16:02;;;;;;;;;;;4.60;99.90;;;;;;5106450;28;20405;-78
2021/12/24 11:18:34;;;;;;;0.10;0.10;;;4.60;99.90;;;;;;5105833;28;19916;-78
2021/12/24 11:21:09;;;;;;;0.10;0.10;;;4.60;99.90;;;;;;5089572;28;20048;-78
2021/12/24 11:23:38;;;;;;;0.10;0.10;;;4.60;99.90;;;;;;5105302;28;20251;-84
2021/12/24 11:26:08;;;;;;;0.10;0.10;;;4.50;99.90;;;;;;5086201;28;20156;-79
2021/12/24 11:28:37;;;;;;;0.10;0.10;;;4.50;99.90;;;;;;5087169;28;20463;-83
2021/12/24 11:31:06;;;;;;;0.10;0.10;;;4.50;99.90;;;;;;5086658;28;20049;-84
2021/12/24 11:33:36;;;;;;;0.10;0.10;;;4.50;99.90;;;;;;5088488;28;20056;-83
2021/12/24 11:36:07;;;;;;;0.10;0.10;;;4.50;99.90;;;;;;5081352;28;20115;-83
2021/12/24 11:38:38;;;;;;;0.20;0.20;;;4.50;99.90;;;;;;5096953;28;20486;-83
2021/12/24 11:41:07;;;;;;;0.10;0.10;;;4.60;99.90;;;;;;5094697;28;20087;-77
2021/12/24 11:43:37;;;;;;;0.10;0.10;;;4.70;99.90;;;;;;5089185;28;20044;-78
2021/12/24 11:46:07;;;;;;;0.10;0.10;;;4.60;99.90;;;;;;5088921;28;20037;-84
2021/12/24 11:48:35;;;;;;;0.10;0.10;;;4.70;99.90;;;;;;5105808;28;20040;-79
2021/12/24 11:51:21;;;;;;;0.10;0.10;;;4.60;99.90;;;;;;5072242;28;20512;-86
2021/12/24 11:53:51;;;;;;;0.10;0.10;;;4.50;99.90;;;;;;5089589;28;20127;-82
2021/12/24 11:56:20;;;;;;;0.10;0.10;;;4.50;99.90;;;;;;5109804;28;20043;-82
2021/12/24 11:58:50;;;;;;;0.10;0.10;;;4.50;99.90;;;;;;5092891;28;20044;-83
2021/12/24 12:01:22;;;;;;;0.10;0.10;;;4.90;99.90;;;;;;5076152;28;20483;-78
2021/12/24 12:03:51;;;;;;;0.10;0.10;;;4.70;99.90;;;;;;5106185;28;20040;-82
2021/12/24 12:06:24;;;;;;;0.10;0.10;;;4.50;99.90;;;;;;5073461;28;20048;-77
2021/12/24 12:08:55;;;;;;;0.10;0.10;;;4.60;99.90;;;;;;5088790;28;20080;-78
2021/12/24 12:11:35;;;;;;;0.10;0.10;;;4.50;99.90;;;;;;5072706;28;20228;-83
2021/12/24 12:14:23;;;;;;;0.10;0.10;;;4.50;99.90;;;;;;5089144;28;20404;-83
2021/12/24 12:17:06;;;;;;;0.10;0.10;;;4.50;99.90;;;;;;5088712;28;20044;-83
2021/12/24 12:24:59;;;;;;;0.10;0.10;;;4.50;99.90;;;;;;5088486;28;20059;-83
2021/12/24 12:27:34;;;;;;;0.10;0.10;;;4.40;99.90;;;;;;5091731;28;20045;-83
2021/12/24 12:30:20;;;;;;;0.10;0.10;;;4.50;99.90;;;;;;5091952;28;20945;-80
2021/12/24 12:32:49;;;;;;;0.10;0.10;;;4.40;99.90;;;;;;5106014;28;20090;-82
2021/12/24 12:35:16;;;;;;;0.10;0.10;;;4.40;99.90;;;;;;5083703;28;20037;-82
2021/12/24 12:37:52;;;;;;;0.10;0.10;;;4.40;99.90;;;;;;5096105;28;20039;-82
2021/12/24 12:40:19;;;;;;;0.10;0.10;;;4.40;99.90;;;;;;5091300;28;20072;-83
2021/12/24 12:42:50;;;;;;;0.10;0.10;;;4.40;99.90;;;;;;5098711;28;20098;-84
2021/12/24 12:45:20;;;;;;;0.10;0.10;;;4.50;99.90;;;;;;5072185;28;20060;-85
2021/12/24 12:47:57;;;;;;;0.10;0.10;;;4.50;99.90;;;;;;5100225;28;20123;-84
2021/12/24 12:50:26;;;;;;;0.10;0.10;;;4.50;99.90;;;;;;5059891;28;20144;-83
2021/12/24 12:53:26;;;;;;;0.10;0.10;;;4.50;99.90;;;;;;5055784;28;20033;-84
2021/12/24 12:56:17;;;;;;;0.10;0.10;;;4.50;99.90;;;;;;5088215;28;20044;-84
2021/12/24 12:59:07;;;;;;;0.10;0.10;;;4.50;99.90;;;;;;5104744;28;20458;-83
2021/12/24 13:01:50;;;;;;;0.10;0.10;;;4.60;99.90;;;;;;5107809;28;20474;-84
2021/12/24 13:04:17;;;;;;;0.10;0.10;;;4.60;99.90;;;;;;5091484;28;20127;-83
2021/12/24 13:06:48;;;;;;;0.10;0.10;;;4.60;99.90;;;;;;5091575;28;20048;-84
2021/12/24 13:09:18;;;;;;;0.10;0.10;;;4.60;99.90;;;;;;5104238;28;20033;-84
2021/12/24 13:11:52;;;;;;;0.10;0.10;;;4.60;99.90;;;;;;5088831;28;20103;-83
2021/12/24 13:14:22;;;;;;;0.25;0.25;;;4.60;99.90;;;;;;5084396;28;20037;-84
2021/12/24 13:17:04;;;;;;;0.10;0.10;;;4.70;99.90;;;;;;5088015;28;20131;-83
2021/12/24 13:22:28;;;;;;;0.10;0.10;;;4.70;99.90;;;;;;5108034;28;20524;-84
2021/12/24 13:25:13;;;;;;;0.10;0.10;;;4.80;99.90;;;;;;5091316;28;20047;-83
2021/12/24 13:27:51;;;;;;;0.10;0.10;;;4.70;99.90;;;;;;5091650;28;20047;-83
2021/12/24 13:30:23;;;;;;;0.20;0.20;;;4.70;99.90;;;;;;5108119;28;20043;-84
2021/12/24 13:33:02;;;;;;;0.10;0.10;;;4.70;99.90;;;;;;5079538;28;20557;-84
2021/12/24 13:35:44;;;;;;;0.10;0.10;;;4.70;99.90;;;;;;5091256;28;20509;-84
2021/12/24 13:38:29;;;;;;;0.03;0.03;;;4.70;99.90;;;;;;5088920;28;20036;-84
2021/12/24 13:40:57;;;;;;;0.10;0.10;;;4.80;99.90;;;;;;5081941;28;20052;-83
2021/12/24 13:43:24;;;;;;;0.15;0.15;;;4.80;99.90;;;;;;5087333;28;20404;-82
2021/12/24 13:45:52;;;;;;;0.10;0.10;;;4.80;99.90;;;;;;5054691;28;20037;-83
2021/12/24 13:48:30;;;;;;;0.00;0.00;;;5.00;99.90;;;;;;5092971;28;20401;-84
2021/12/24 13:56:24;;;;;;;0.10;0.10;;;4.80;99.90;;;;;;5107726;28;20497;-84
2021/12/24 13:58:56;;;;;;;0.10;0.10;;;4.80;99.90;;;;;;5107677;28;20070;-83
2021/12/24 14:01:25;;;;;;;0.10;0.10;;;4.80;99.90;;;;;;5101902;28;20045;-82
2021/12/24 14:03:52;;;;;;;0.10;0.10;;;4.90;99.90;;;;;;5087319;28;20036;-83
2021/12/24 14:06:20;;;;;;;0.10;0.10;;;5.10;99.90;;;;;;5087718;28;20099;-84
2021/12/24 14:08:47;;;;;;;0.10;0.10;;;4.80;99.90;;;;;;5089671;28;20389;-82
2021/12/24 14:11:19;;;;;;;0.00;0.00;;;4.80;99.90;;;;;;5053868;28;20049;-84
2021/12/24 14:13:55;;;;;;;0.10;0.10;;;4.80;99.90;;;;;;5071053;28;20033;-85
2021/12/24 14:19:17;;;;;;;0.10;0.10;;;4.80;99.90;;;;;;5107290;28;20045;-83
2021/12/24 14:21:46;;;;;;;0.10;0.10;;;4.80;99.90;;;;;;5090291;28;20032;-85
2021/12/24 14:24:28;;;;;;;0.10;0.10;;;4.80;99.90;;;;;;5090572;28;20043;-84
2021/12/24 14:26:59;;;;;;;0.10;0.10;;;4.80;99.90;;;;;;5090171;28;20036;-84
2021/12/24 14:29:39;;;;;;;0.10;0.10;;;4.80;99.90;;;;;;5090322;28;20036;-84
2021/12/24 14:32:13;;;;;;;0.10;0.10;;;4.80;99.90;;;;;;5090046;28;20040;-83
2021/12/24 14:34:53;;;;;;;0.10;0.10;;;4.80;99.90;;;;;;5090129;28;20520;-84
2021/12/24 14:37:34;;;;;;;0.10;0.10;;;4.80;99.90;;;;;;5106642;28;20044;-83
2021/12/24 14:40:06;;;;;;;0.10;0.10;;;4.90;99.90;;;;;;5089927;28;20627;-83
2021/12/24 14:42:36;;;;;;;0.10;0.10;;;4.90;99.90;;;;;;5106822;28;20095;-85
2021/12/24 14:45:18;;;;;;;0.20;0.20;;;4.80;99.90;;;;;;5089773;28;20041;-86
2021/12/24 14:48:29;;;;;;;0.10;0.10;;;4.80;99.90;;;;;;5090027;28;20131;-84
2021/12/24 14:51:08;;;;;;;0.10;0.10;;;4.80;99.90;;;;;;5081399;28;20131;-84
2021/12/24 14:53:40;;;;;;;0.10;0.10;;;4.90;99.90;;;;;;5090257;28;20040;-84
2021/12/24 14:56:15;;;;;;;0.10;0.10;;;4.80;99.90;;;;;;5106059;28;20129;-81
2021/12/24 14:58:49;;;;;;;0.10;0.10;;;4.80;99.90;;;;;;5097128;28;20047;-81
2021/12/24 15:01:17;;;;;;;0.10;0.10;;;4.80;99.90;;;;;;5088703;28;20401;-78